Požarna ogroženost Od: 01-03-2021 23:00 Do: 04-03-2021 22:59 Opozorilo za: Požarna ogroženost Stopnja: Rumena info button

METAR v bližini

 

LIPQ - Ronchi Legionari, Italy
Oddaljenost od postaje: JZ 35km
Podatki zajeti: 03/03/2021 09:50
Jasno
Jasno
 Veter iz smeri JJZ
Veter: JJZ 6 km/h
Temperatura: 10°C
Temp. rosišča: 3°C
Vlažnost: 62%
Tlak: 1032 hPa
Oblačnost: Jasno
Vidljivost: 10 km
2021/03/03 08:50 LIPQ 030850Z AUTO 20003KT 140V240 9999 NCD 10/03 Q1032
LIVT - Trieste, Italy
Oddaljenost od postaje: J 49km
Podatki zajeti: 03/03/2021 09:55
Jasno
Jasno
 Veter iz smeri calm
Veter: Tišina
Temperatura: 10°C
Temp. rosišča: 5°C
Vlažnost: 71%
Tlak: 1031 hPa
Stanje: Jasno
Vidljivost: večja od 10 km
2021/03/03 08:55 LIVT 030855Z 00000KT CAVOK 10/05 Q1031 RMK SKC QUK 0 QUL 0 VIS MAR 20 KM VIS MIN 9999
 
LIVO - Tarvisio, Italy
Oddaljenost od postaje: SSZ 49km
Podatki zajeti: 03/03/2021 09:55
Jasno
Jasno
 Veter iz smeri J
Veter: J 4 km/h
Temperatura: 2°C
Temp. rosišča: -2°C
Vlažnost: 75%
Tlak: 1030 hPa
Stanje: Jasno
Vidljivost: večja od 10 km
2021/03/03 08:55 LIVO 030855Z 18002KT CAVOK 02/M02 Q1030 RMK SKC VIS MIN 9999
LIPI - Rivolto (it-Afb), Italy
Oddaljenost od postaje: ZJZ 57km
Podatki zajeti: 03/03/2021 09:55
Jasno
Jasno
 Veter iz smeri spremenljiv
Veter: spremenljiv 2 km/h
Temperatura: 11°C
Temp. rosišča: 1°C
Vlažnost: 50%
Tlak: 1032 hPa
Stanje: Jasno
Vidljivost: večja od 10 km
2021/03/03 08:55 LIPI 030855Z VRB01KT CAVOK 11/01 Q1032 RMK FEW FEW200 VIS MIN 9999 WIND THR06 VRB01KT WIND THR24 VRB02KT BLU
 
LJLJ - Ljubljana/Brnik, Slovenia
Oddaljenost od postaje: VSV 59km
Podatki zajeti: 03/03/2021 10:00
Jasno
Jasno
 Veter iz smeri spremenljiv
Veter: spremenljiv 2 km/h
Temperatura: 6°C
Temp. rosišča: -1°C
Vlažnost: 61%
Tlak: 1031 hPa
Stanje: Jasno
Vidljivost: večja od 10 km
2021/03/03 09:00 LJLJ 030900Z VRB01KT CAVOK 06/M01 Q1031 NOSIG
LJPZ - Portoroz, Slovenia
Oddaljenost od postaje: J 68km
Podatki zajeti: 03/03/2021 10:00
Jasno
Jasno
 Veter iz smeri spremenljiv
Veter: spremenljiv 2 km/h
Temperatura: 12°C
Temp. rosišča: 3°C
Vlažnost: 54%
Tlak: 1032 hPa
Stanje: Jasno
Vidljivost: večja od 10 km
2021/03/03 09:00 LJPZ 030900Z VRB01KT CAVOK 12/03 Q1032
 
LOWK - Klagenfurt(Civ/M, Austria
Oddaljenost od postaje: SV 78km
Podatki zajeti: 03/03/2021 09:50
Jasno
Jasno
 Veter iz smeri spremenljiv
Veter: spremenljiv 4 km/h
Temperatura: 5°C
Temp. rosišča: -1°C
Vlažnost: 66%
Tlak: 1033 hPa
Stanje: Jasno
Vidljivost: večja od 10 km
2021/03/03 08:50 LOWK 030850Z VRB02KT CAVOK 05/M01 Q1033 NOSIG
LIPA - Aviano (it/Us-Af, Italy
Oddaljenost od postaje: Z 89km
Podatki zajeti: 03/03/2021 09:55
Jasno
Jasno
 Veter iz smeri JJZ
Veter: JJZ 6 km/h
Temperatura: 10°C
Temp. rosišča: 4°C
Vlažnost: 67%
Tlak: 1032 hPa
Stanje: Jasno
Vidljivost: večja od 10 km
2021/03/03 08:55 LIPA 030855Z 21003KT CAVOK 10/04 Q1032 RMK SCT SCT200 VIS MIN 9999 WIND THR05 /////KT WIND THR23 /////KT A3048 BLU
 
LDRI - Rijeka/Omisalj, Croatia
Oddaljenost od postaje: JV 115km
Podatki zajeti: 03/03/2021 10:00
Jasno
Jasno
 Veter iz smeri spremenljiv
Veter: spremenljiv 4 km/h
Temperatura: 12°C
Temp. rosišča: -1°C
Vlažnost: 41%
Tlak: 1032 hPa
Stanje: Jasno
Vidljivost: večja od 10 km
2021/03/03 09:00 LDRI 030900Z VRB02KT CAVOK 12/M01 Q1032
LIPZ - Venezia/Tessera, Italy
Oddaljenost od postaje: ZJZ 127km
Podatki zajeti: 03/03/2021 09:50
Jasno
Jasno
 Veter iz smeri spremenljiv
Veter: spremenljiv 4 km/h
Temperatura: 9°C
Temp. rosišča: 5°C
Vlažnost: 76%
Tlak: 1032 hPa
Stanje: Jasno
Vidljivost: večja od 10 km
2021/03/03 08:50 LIPZ 030850Z VRB02KT CAVOK 09/05 Q1032 NOSIG
 
LDPL - Pula, Croatia
Oddaljenost od postaje: J 133km
Podatki zajeti: 03/03/2021 10:00
Jasno
Jasno
 Veter iz smeri Z
Veter: Z 9 km/h
Temperatura: 13°C
Temp. rosišča: 2°C
Vlažnost: 47%
Tlak: 1032 hPa
Stanje: Jasno
Vidljivost: večja od 10 km
2021/03/03 09:00 LDPL 030900Z 28005KT CAVOK 13/02 Q1032 BECMG 27009KT
LIPS - Istrana (it-Afb), Italy
Oddaljenost od postaje: ZJZ 136km
Podatki zajeti: 03/03/2021 09:55
Jasno
Jasno
 Veter iz smeri JV
Veter: JV 4 km/h
Temperatura: 10°C
Temp. rosišča: 7°C
Vlažnost: 82%
Tlak: 1032 hPa
Stanje: Jasno
Vidljivost: večja od 10 km
2021/03/03 08:55 LIPS 030855Z 13002KT CAVOK 10/07 Q1032 RMK SCT SCT200 VIS MIN 9999 WIND THR26 00000KT WIND THR08 13002KT BLU
 
LIVD - Dobbiaco, Italy
Oddaljenost od postaje: ZSZ 137km
Podatki zajeti: 03/03/2021 08:55
Ni posodobljen
Jasno
Jasno
 Veter iz smeri spremenljiv
Veter: spremenljiv 0 km/h
Temperatura: -2°C
Temp. rosišča: -6°C
Vlažnost: 74%
Tlak: 1033 hPa
Stanje: Jasno
Vidljivost: večja od 10 km
2021/03/03 07:55 LIVD 030755Z /////KT CAVOK M02/M06 Q1033 RMK SCT SCT200 VIS MIN 9999 BLU
LJCE - Cerklje, Slovenia
Oddaljenost od postaje: V 139km
Podatki zajeti: 03/03/2021 10:00
Jasno
Jasno
 Veter iz smeri spremenljiv
Veter: spremenljiv 2 km/h
Temperatura: 7°C
Temp. rosišča: 0°C
Vlažnost: 61%
Tlak: 1032 hPa
Stanje: Jasno
Vidljivost: večja od 10 km
2021/03/03 09:00 LJCE 030900Z VRB01KT CAVOK 07/00 Q1032 RMK BLU
 
LOXZ - Zeltweg (mil), Austria
Oddaljenost od postaje: SSV 147km
Podatki zajeti: 03/03/2021 09:50
Rahlo oblačno
Rahlo oblačno
 Veter iz smeri spremenljiv
Veter: spremenljiv 2 km/h
Temperatura: 3°C
Temp. rosišča: -3°C
Vlažnost: 65%
Tlak: 1032 hPa
Oblačnost: Rahlo oblačno
Podrobnosti o oblakih: Rahlo oblačno 7620 m
2021/03/03 08:50 LOXZ 030850Z VRB01KT 25KM FEW250CI 03/M03 Q1032 NOSIG
sucontract_SNC